createdAt,value
2018-04-28T00:01:49.198Z,3.10
2018-04-28T00:04:18.510Z,2.77
2018-04-28T00:06:47.850Z,3.37
2018-04-28T00:09:17.920Z,3.97
2018-04-28T00:11:46.831Z,2.70
2018-04-28T00:14:16.525Z,3.60
2018-04-28T00:30:13.873Z,2.97
2018-04-28T00:32:43.921Z,2.70
2018-04-28T00:35:14.133Z,3.87
2018-04-28T00:37:47.275Z,3.10
2018-04-28T00:40:22.314Z,2.97
2018-04-28T00:42:53.671Z,3.07
2018-04-28T00:45:32.291Z,2.67
2018-04-28T00:48:01.234Z,2.53
2018-04-28T00:50:31.371Z,2.33
2018-04-28T00:53:01.643Z,3.50
2018-04-28T00:55:36.180Z,2.77
2018-04-28T00:58:06.487Z,3.00
2018-04-28T01:00:36.751Z,2.60
2018-04-28T01:03:06.292Z,2.90
2018-04-28T01:05:42.813Z,3.30
2018-04-28T01:08:12.499Z,2.60
2018-04-28T01:10:44.029Z,2.93
2018-04-28T01:13:12.927Z,3.00
2018-04-28T01:15:42.711Z,2.87
2018-04-28T01:18:14.013Z,2.80
2018-04-28T01:20:48.765Z,3.10
2018-04-28T01:23:20.547Z,2.43
2018-04-28T01:25:50.228Z,2.90
2018-04-28T01:31:23.795Z,3.17
2018-04-28T01:34:09.318Z,2.90
2018-04-28T01:36:58.537Z,3.10
2018-04-28T01:39:28.233Z,3.27
2018-04-28T01:45:05.901Z,2.57
2018-04-28T01:50:30.621Z,3.80
2018-04-28T01:53:00.465Z,3.13
2018-04-28T01:55:39.317Z,2.40
2018-04-28T01:58:15.974Z,2.80
2018-04-28T02:00:51.954Z,3.17
2018-04-28T02:03:28.036Z,2.63
2018-04-28T02:06:13.854Z,3.00
2018-04-28T02:08:42.564Z,3.20
2018-04-28T02:14:22.955Z,3.00
2018-04-28T02:16:53.330Z,2.80
2018-04-28T02:19:24.416Z,2.70
2018-04-28T02:22:18.812Z,2.80
2018-04-28T02:24:55.180Z,2.70
2018-04-28T02:27:45.812Z,2.80
2018-04-28T02:30:15.498Z,2.63
2018-04-28T02:32:54.193Z,3.30
2018-04-28T02:35:24.972Z,2.77
2018-04-28T02:37:58.058Z,2.37
2018-04-28T02:40:35.796Z,2.60
2018-04-28T02:43:04.692Z,3.30
2018-04-28T02:45:48.502Z,2.77
2018-04-28T02:48:29.413Z,2.83
2018-04-28T02:51:02.814Z,2.60
2018-04-28T02:53:48.502Z,2.67
2018-04-28T03:02:28.076Z,3.23
2018-04-28T03:05:31.118Z,2.80
2018-04-28T03:08:23.742Z,2.87
2018-04-28T03:10:53.590Z,3.03
2018-04-28T03:13:37.412Z,2.83
2018-04-28T03:16:12.635Z,3.70
2018-04-28T03:18:41.547Z,3.00
2018-04-28T03:21:14.022Z,3.50
2018-04-28T03:23:42.926Z,3.27
2018-04-28T03:26:16.910Z,3.40
2018-04-28T03:28:48.319Z,3.27
2018-04-28T03:31:20.885Z,3.87
2018-04-28T03:34:00.516Z,3.20
2018-04-28T03:36:30.230Z,4.60
2018-04-28T03:39:01.936Z,4.10
2018-04-28T03:41:32.541Z,3.90
2018-04-28T03:44:04.173Z,3.67
2018-04-28T03:46:35.851Z,3.87
2018-04-28T03:49:22.249Z,4.07
2018-04-28T03:51:56.860Z,4.73
2018-04-28T03:54:29.255Z,3.43
2018-04-28T03:56:58.943Z,5.00
2018-04-28T03:59:39.593Z,5.10
2018-04-28T04:02:20.415Z,4.00
2018-04-28T04:04:50.099Z,4.60
2018-04-28T04:07:20.559Z,4.00
2018-04-28T04:09:53.162Z,4.50
2018-04-28T04:12:32.987Z,4.80
2018-04-28T04:18:04.926Z,4.20
2018-04-28T04:20:36.822Z,4.43
2018-04-28T04:23:10.419Z,4.80
2018-04-28T04:25:51.185Z,4.57
2018-04-28T04:28:25.822Z,4.33
2018-04-28T04:31:15.947Z,4.03
2018-04-28T04:36:56.328Z,3.87
2018-04-28T04:39:32.422Z,4.40
2018-04-28T04:42:11.011Z,4.63
2018-04-28T04:44:40.727Z,4.43
2018-04-28T04:47:15.583Z,4.60
2018-04-28T04:49:49.602Z,4.50
2018-04-28T04:52:27.983Z,4.00
2018-04-28T04:55:05.249Z,3.10
2018-04-28T04:57:52.731Z,4.13
2018-04-28T05:00:43.431Z,4.27
2018-04-28T05:03:24.631Z,3.60
2018-04-28T05:06:09.787Z,4.00
2018-04-28T05:08:45.833Z,3.90
2018-04-28T05:14:32.423Z,3.53
2018-04-28T05:17:08.545Z,3.53
2018-04-28T05:20:02.409Z,3.83
2018-04-28T05:22:39.639Z,3.77
2018-04-28T05:25:20.472Z,4.00
2018-04-28T05:30:53.524Z,3.37
2018-04-28T05:33:29.769Z,4.93
2018-04-28T05:36:11.340Z,4.10
2018-04-28T05:42:13.020Z,4.20
2018-04-28T05:44:49.080Z,4.07
2018-04-28T05:47:24.448Z,3.70
2018-04-28T05:52:58.951Z,3.80
2018-04-28T05:55:49.583Z,3.50
2018-04-28T05:58:26.313Z,4.77
2018-04-28T06:01:07.234Z,4.07
2018-04-28T06:03:45.914Z,4.27
2018-04-28T06:06:21.183Z,3.70
2018-04-28T06:08:53.693Z,4.33
2018-04-28T06:11:35.570Z,4.50
2018-04-28T06:14:13.083Z,3.67
2018-04-28T06:16:47.875Z,3.80
2018-04-28T06:19:28.558Z,4.10
2018-04-28T06:21:58.236Z,4.00
2018-04-28T06:24:27.174Z,4.43
2018-04-28T06:26:56.482Z,3.93
2018-04-28T06:29:26.167Z,3.70
2018-04-28T06:31:55.098Z,3.67
2018-04-28T06:34:24.027Z,4.00
2018-04-28T06:36:58.332Z,4.10
2018-04-28T06:39:30.105Z,3.97
2018-04-28T06:41:59.436Z,3.80
2018-04-28T06:44:28.932Z,4.30
2018-04-28T06:46:59.376Z,3.17
2018-04-28T06:49:28.312Z,4.00
2018-04-28T06:51:57.664Z,4.40
2018-04-28T06:54:26.587Z,3.70
2018-04-28T06:56:56.874Z,4.90
2018-04-28T06:59:26.386Z,4.33
2018-04-28T07:01:55.295Z,4.00
2018-04-28T07:04:24.969Z,4.53
2018-04-28T07:06:53.906Z,4.37
2018-04-28T07:09:23.592Z,3.63
2018-04-28T07:11:53.273Z,4.53
2018-04-28T07:14:22.188Z,4.47
2018-04-28T07:16:51.511Z,4.47
2018-04-28T07:19:20.813Z,4.40
2018-04-28T07:21:49.752Z,4.50
2018-04-28T07:24:18.670Z,4.60
2018-04-28T07:26:48.364Z,3.40
2018-04-28T07:29:17.297Z,4.53
2018-04-28T07:31:46.224Z,3.70
2018-04-28T07:34:16.640Z,3.73
2018-04-28T07:36:46.348Z,3.73
2018-04-28T07:39:15.275Z,3.50
2018-04-28T07:41:47.389Z,3.60
2018-04-28T07:44:17.678Z,4.10
2018-04-28T07:46:47.529Z,3.30
2018-04-28T07:49:17.814Z,3.63
2018-04-28T07:51:46.566Z,3.63
2018-04-28T07:54:15.520Z,3.60
2018-04-28T07:56:44.410Z,3.67
2018-04-28T07:59:13.376Z,3.73
2018-04-28T08:01:43.064Z,3.57
2018-04-28T08:04:13.350Z,4.10
2018-04-28T08:06:43.406Z,3.40
2018-04-28T08:09:12.118Z,3.50
2018-04-28T08:11:42.392Z,3.43
2018-04-28T08:14:11.124Z,3.70
2018-04-28T08:16:40.444Z,3.17
2018-04-28T08:19:09.362Z,3.23
2018-04-28T08:21:38.296Z,4.00
2018-04-28T08:24:08.358Z,3.30
2018-04-28T08:26:38.829Z,3.40
2018-04-28T08:29:08.446Z,3.13
2018-04-28T08:31:38.346Z,3.17
2018-04-28T08:34:08.400Z,3.03
2018-04-28T08:36:38.468Z,3.50
2018-04-28T08:39:07.398Z,3.50
2018-04-28T08:41:36.314Z,2.70
2018-04-28T08:44:06.390Z,2.80
2018-04-28T08:46:35.305Z,2.77
2018-04-28T08:49:05.029Z,3.60
2018-04-28T08:51:33.952Z,3.43
2018-04-28T08:54:02.852Z,3.10
2018-04-28T08:56:33.149Z,3.20
2018-04-28T08:59:01.850Z,3.63
2018-04-28T09:01:30.881Z,3.63
2018-04-28T09:03:59.780Z,3.10
2018-04-28T09:06:30.223Z,4.00
2018-04-28T09:09:00.011Z,3.13
2018-04-28T09:11:29.326Z,3.23
2018-04-28T09:13:58.658Z,3.53
2018-04-28T09:16:29.503Z,3.07
2018-04-28T09:18:58.492Z,2.87
2018-04-28T09:21:27.398Z,3.10
2018-04-28T09:23:56.366Z,3.50
2018-04-28T09:26:25.283Z,3.80
2018-04-28T09:28:55.547Z,4.00
2018-04-28T09:31:25.036Z,3.80
2018-04-28T09:33:55.878Z,3.47
2018-04-28T09:36:24.580Z,3.10
2018-04-28T09:38:53.901Z,4.10
2018-04-28T09:41:23.986Z,4.30
2018-04-28T09:43:54.276Z,4.20
2018-04-28T09:46:23.455Z,4.20
2018-04-28T09:48:53.124Z,3.77
2018-04-28T09:51:22.970Z,4.33
2018-04-28T09:53:54.836Z,3.63
2018-04-28T09:56:24.160Z,3.13
2018-04-28T09:58:53.177Z,3.80
2018-04-28T10:01:23.004Z,3.70
2018-04-28T10:03:55.388Z,3.90
2018-04-28T10:06:24.331Z,4.20
2018-04-28T10:08:53.231Z,3.37
2018-04-28T10:11:22.596Z,3.83
2018-04-28T10:13:51.496Z,3.50
2018-04-28T10:16:20.420Z,3.60
2018-04-28T10:18:49.369Z,3.13
2018-04-28T10:21:18.300Z,3.80
2018-04-28T10:23:47.711Z,3.63
2018-04-28T10:26:16.644Z,3.73
2018-04-28T10:28:45.733Z,3.00
2018-04-28T10:31:14.644Z,3.70
2018-04-28T10:33:44.358Z,3.10
2018-04-28T10:36:14.031Z,2.43
2018-04-28T10:38:42.972Z,3.00
2018-04-28T10:41:11.894Z,2.67
2018-04-28T10:43:40.825Z,2.57
2018-04-28T10:46:10.522Z,2.50
2018-04-28T10:48:39.415Z,3.07
2018-04-28T10:51:09.583Z,2.40
2018-04-28T10:53:41.593Z,2.00
2018-04-28T10:56:11.384Z,2.03
2018-04-28T10:58:40.304Z,2.53
2018-04-28T11:01:09.214Z,2.23
2018-04-28T11:03:39.291Z,1.73
2018-04-28T11:06:09.595Z,2.00
2018-04-28T11:08:38.691Z,1.80
2018-04-28T11:11:08.999Z,1.87
2018-04-28T11:13:38.469Z,2.00
2018-04-28T11:16:07.370Z,2.13
2018-04-28T11:18:36.390Z,1.67
2018-04-28T11:21:05.314Z,2.30
2018-04-28T11:23:35.378Z,2.20
2018-04-28T11:26:04.816Z,2.40
2018-04-28T11:28:34.701Z,1.93
2018-04-28T11:31:05.587Z,2.00
2018-04-28T11:33:35.268Z,2.23
2018-04-28T11:36:04.950Z,2.03
2018-04-28T11:38:34.288Z,2.33
2018-04-28T11:41:03.204Z,1.97
2018-04-28T11:43:33.577Z,2.23
2018-04-28T11:46:03.030Z,2.20
2018-04-28T11:48:33.314Z,2.10
2018-04-28T11:51:02.772Z,1.90
2018-04-28T11:53:33.036Z,1.80
2018-04-28T11:56:02.143Z,2.33
2018-04-28T11:58:32.400Z,2.00
2018-04-28T12:01:01.510Z,2.17
2018-04-28T12:03:32.512Z,2.20
2018-04-28T12:06:05.106Z,1.80
2018-04-28T12:08:35.530Z,1.67
2018-04-28T12:11:04.466Z,1.90
2018-04-28T12:13:34.532Z,1.90
2018-04-28T12:16:03.451Z,2.50
2018-04-28T12:18:33.767Z,2.00
2018-04-28T12:21:02.494Z,2.33
2018-04-28T12:23:32.742Z,2.23
2018-04-28T12:26:02.299Z,4.23
2018-04-28T12:28:31.288Z,2.17
2018-04-28T12:31:01.028Z,2.00
2018-04-28T12:33:30.360Z,1.87
2018-04-28T12:35:59.791Z,1.60
2018-04-28T12:38:28.684Z,1.93
2018-04-28T12:40:58.933Z,1.70
2018-04-28T12:43:28.011Z,1.77
2018-04-28T12:45:58.564Z,1.80
2018-04-28T12:48:27.473Z,1.87
2018-04-28T12:50:56.400Z,1.63
2018-04-28T12:53:26.525Z,1.80
2018-04-28T12:55:56.590Z,1.80
2018-04-28T12:58:27.024Z,2.23
2018-04-28T13:00:57.274Z,2.00
2018-04-28T13:03:26.372Z,1.47
2018-04-28T13:05:56.436Z,1.30
2018-04-28T13:08:26.844Z,1.33
2018-04-28T13:10:55.790Z,1.50
2018-04-28T13:13:25.465Z,1.47
2018-04-28T13:15:55.747Z,1.57
2018-04-28T13:18:25.956Z,1.37
2018-04-28T13:20:55.648Z,1.63
2018-04-28T13:23:25.430Z,1.40
2018-04-28T13:25:55.475Z,1.40
2018-04-28T13:28:24.456Z,1.17
2018-04-28T13:30:54.128Z,1.20
2018-04-28T13:33:24.400Z,2.07
2018-04-28T13:35:53.077Z,1.87
2018-04-28T13:38:22.046Z,1.67
2018-04-28T13:40:52.280Z,2.07
2018-04-28T13:43:21.776Z,3.00
2018-04-28T13:45:51.513Z,1.80
2018-04-28T13:48:21.194Z,2.20
2018-04-28T13:50:50.532Z,2.00
2018-04-28T13:53:20.449Z,2.00
2018-04-28T13:55:50.168Z,2.00
2018-04-28T13:58:20.137Z,2.20
2018-04-28T14:00:50.571Z,2.43
2018-04-28T14:03:20.366Z,2.70
2018-04-28T14:05:49.276Z,2.80
2018-04-28T14:08:18.952Z,2.43
2018-04-28T14:10:48.642Z,2.33
2018-04-28T14:13:19.324Z,1.40
2018-04-28T14:15:48.986Z,2.10
2018-04-28T14:18:19.426Z,1.67
2018-04-28T14:20:49.516Z,1.83
2018-04-28T14:23:18.426Z,2.10
2018-04-28T14:25:47.351Z,1.50
2018-04-28T14:28:17.648Z,2.00
2018-04-28T14:30:47.500Z,2.20
2018-04-28T14:33:16.423Z,1.80
2018-04-28T14:35:45.333Z,1.87
2018-04-28T14:38:15.392Z,1.90
2018-04-28T14:40:45.655Z,2.00
2018-04-28T14:43:14.380Z,1.90
2018-04-28T14:45:44.842Z,2.07
2018-04-28T14:48:14.166Z,2.10
2018-04-28T14:50:43.100Z,1.83
2018-04-28T14:53:13.371Z,1.90
2018-04-28T14:55:42.101Z,2.23
2018-04-28T14:58:11.403Z,2.40
2018-04-28T15:00:41.689Z,2.07
2018-04-28T15:03:11.748Z,2.20
2018-04-28T15:05:40.485Z,2.10
2018-04-28T15:08:10.537Z,1.70
2018-04-28T15:10:39.460Z,2.00
2018-04-28T15:13:08.403Z,1.60
2018-04-28T15:15:37.297Z,1.67
2018-04-28T15:18:06.230Z,1.97
2018-04-28T15:20:36.505Z,2.00
2018-04-28T15:23:05.327Z,2.30
2018-04-28T15:25:34.243Z,1.90
2018-04-28T15:28:04.497Z,1.57
2018-04-28T15:30:33.234Z,2.57
2018-04-28T15:33:03.682Z,2.50
2018-04-28T15:35:32.642Z,2.30
2018-04-28T15:38:01.548Z,2.23
2018-04-28T15:40:31.831Z,2.50
2018-04-28T15:43:00.522Z,2.60
2018-04-28T15:45:29.425Z,2.23
2018-04-28T15:47:58.425Z,1.97
2018-04-28T15:50:27.343Z,2.13
2018-04-28T15:52:57.635Z,1.80
2018-04-28T15:55:26.831Z,2.07
2018-04-28T15:57:56.449Z,2.50
2018-04-28T16:00:26.836Z,1.47
2018-04-28T16:02:56.306Z,2.00
2018-04-28T16:05:26.339Z,1.80
2018-04-28T16:07:56.037Z,1.90
2018-04-28T16:10:25.529Z,2.20
2018-04-28T16:12:55.228Z,1.80
2018-04-28T16:15:24.914Z,2.13
2018-04-28T16:17:54.618Z,2.17
2018-04-28T16:20:24.308Z,2.23
2018-04-28T16:22:53.225Z,2.43
2018-04-28T16:25:22.552Z,2.20
2018-04-28T16:27:51.463Z,3.10
2018-04-28T16:30:21.164Z,2.67
2018-04-28T16:32:50.076Z,1.97
2018-04-28T16:35:19.405Z,2.47
2018-04-28T16:37:49.462Z,2.30
2018-04-28T16:40:19.557Z,2.70
2018-04-28T16:42:49.954Z,2.33
2018-04-28T16:45:18.868Z,2.30
2018-04-28T16:47:48.552Z,2.40
2018-04-28T16:50:18.834Z,2.33
2018-04-28T16:52:48.891Z,2.20
2018-04-28T16:55:18.732Z,2.33
2018-04-28T16:57:48.451Z,2.30
2018-04-28T17:00:18.688Z,2.50
2018-04-28T17:02:47.792Z,2.43
2018-04-28T17:05:16.714Z,2.37
2018-04-28T17:07:45.656Z,2.30
2018-04-28T17:10:14.570Z,2.20
2018-04-28T17:12:44.833Z,3.33
2018-04-28T17:15:13.566Z,3.27
2018-04-28T17:17:49.728Z,3.13
2018-04-28T17:20:18.433Z,3.80
2018-04-28T17:22:48.510Z,3.53
2018-04-28T17:25:19.000Z,2.30
2018-04-28T17:27:48.607Z,2.10
2018-04-28T17:30:17.517Z,2.73
2018-04-28T17:32:46.467Z,2.37
2018-04-28T17:35:15.365Z,2.67
2018-04-28T17:37:45.691Z,2.33
2018-04-28T17:40:14.829Z,2.80
2018-04-28T17:42:44.139Z,2.70
2018-04-28T17:45:13.843Z,2.67
2018-04-28T17:47:44.131Z,3.00
2018-04-28T17:50:13.252Z,2.73
2018-04-28T17:52:43.294Z,3.00
2018-04-28T17:55:12.212Z,2.43
2018-04-28T17:57:41.250Z,2.80
2018-04-28T18:00:11.575Z,3.10
2018-04-28T18:02:40.713Z,3.00
2018-04-28T18:05:19.271Z,3.10
2018-04-28T18:07:49.837Z,4.30
2018-04-28T18:10:18.777Z,5.03
2018-04-28T18:12:48.448Z,3.80
2018-04-28T18:15:17.781Z,3.23
2018-04-28T18:17:46.706Z,3.23
2018-04-28T18:20:16.991Z,2.73
2018-04-28T18:22:47.146Z,2.60
2018-04-28T18:25:15.858Z,3.10
2018-04-28T18:27:44.824Z,2.57
2018-04-28T18:30:14.538Z,2.50
2018-04-28T18:32:44.792Z,2.50
2018-04-28T18:35:13.558Z,3.20
2018-04-28T18:37:44.747Z,2.10
2018-04-28T18:40:14.248Z,2.70
2018-04-28T18:42:43.222Z,2.83
2018-04-28T18:45:12.176Z,3.17
2018-04-28T18:47:41.503Z,2.90
2018-04-28T18:50:16.432Z,2.80
2018-04-28T18:52:45.565Z,3.20
2018-04-28T18:55:14.924Z,2.90
2018-04-28T18:57:44.630Z,2.70
2018-04-28T19:00:13.584Z,2.97
2018-04-28T19:02:42.534Z,2.37
2018-04-28T19:05:11.454Z,2.53
2018-04-28T19:07:41.812Z,2.80
2018-04-28T19:10:11.719Z,3.30
2018-04-28T19:12:41.440Z,2.47
2018-04-28T19:15:11.245Z,3.30
2018-04-28T19:17:40.962Z,3.80
2018-04-28T19:20:11.292Z,2.73
2018-04-28T19:22:40.793Z,3.03
2018-04-28T19:25:10.502Z,2.67
2018-04-28T19:27:39.968Z,2.50
2018-04-28T19:30:10.422Z,2.93
2018-04-28T19:32:39.790Z,2.63
2018-04-28T19:35:08.742Z,2.17
2018-04-28T19:37:38.082Z,3.00
2018-04-28T19:40:08.174Z,1.70
2018-04-28T19:42:37.404Z,2.40
2018-04-28T19:45:07.145Z,2.90
2018-04-28T19:47:37.465Z,2.70
2018-04-28T19:50:07.542Z,2.87
2018-04-28T19:52:37.030Z,2.70
2018-04-28T19:55:06.755Z,2.80
2018-04-28T19:57:36.043Z,2.67
2018-04-28T20:00:05.829Z,2.47
2018-04-28T20:02:35.591Z,3.00
2018-04-28T20:05:05.858Z,3.10
2018-04-28T20:07:35.013Z,2.60
2018-04-28T20:10:04.055Z,3.23
2018-04-28T20:12:32.961Z,2.50
2018-04-28T20:15:01.908Z,2.70
2018-04-28T20:17:32.189Z,2.67
2018-04-28T20:20:01.698Z,2.80
2018-04-28T20:22:42.410Z,2.90
2018-04-28T20:25:20.965Z,3.20
2018-04-28T20:27:49.940Z,3.20
2018-04-28T20:30:19.288Z,3.83
2018-04-28T20:32:48.668Z,3.43
2018-04-28T20:35:18.399Z,3.90
2018-04-28T20:37:47.329Z,3.50
2018-04-28T20:40:17.641Z,3.70
2018-04-28T20:42:46.368Z,3.63
2018-04-28T20:45:15.285Z,3.70
2018-04-28T20:47:45.400Z,3.90
2018-04-28T20:50:15.285Z,3.90
2018-04-28T20:52:44.255Z,3.43
2018-04-28T20:55:13.568Z,3.40
2018-04-28T20:57:42.517Z,3.57
2018-04-28T21:00:12.584Z,3.50
2018-04-28T21:02:41.523Z,3.33
2018-04-28T21:05:10.531Z,3.57
2018-04-28T21:07:40.841Z,2.87
2018-04-28T21:10:10.883Z,4.20
2018-04-28T21:12:41.036Z,3.97
2018-04-28T21:15:09.724Z,3.90
2018-04-28T21:17:40.028Z,3.57
2018-04-28T21:20:09.737Z,3.80
2018-04-28T21:22:38.665Z,3.33
2018-04-28T21:25:08.366Z,3.87
2018-04-28T21:27:37.321Z,4.17
2018-04-28T21:30:07.615Z,3.60
2018-04-28T21:32:37.845Z,3.93
2018-04-28T21:35:07.515Z,3.97
2018-04-28T21:37:36.857Z,4.33
2018-04-28T21:40:08.129Z,4.50
2018-04-28T21:42:37.499Z,5.17
2018-04-28T21:45:07.917Z,3.27
2018-04-28T21:47:38.199Z,4.20
2018-04-28T21:50:07.684Z,4.40
2018-04-28T21:52:37.351Z,5.50
2018-04-28T21:55:06.269Z,5.20
2018-04-28T21:57:36.070Z,5.53
2018-04-28T22:00:06.536Z,5.60
2018-04-28T22:02:35.501Z,4.80
2018-04-28T22:05:04.423Z,4.80
2018-04-28T22:07:33.773Z,6.00
2018-04-28T22:10:04.184Z,4.80
2018-04-28T22:12:33.101Z,5.83
2018-04-28T22:15:02.805Z,5.10
2018-04-28T22:17:33.177Z,5.13
2018-04-28T22:20:02.673Z,4.47
2018-04-28T22:22:32.377Z,5.20
2018-04-28T22:25:01.697Z,5.63
2018-04-28T22:27:30.679Z,5.63
2018-04-28T22:30:00.439Z,4.77
2018-04-28T22:32:29.349Z,4.60
2018-04-28T22:34:58.259Z,5.63
2018-04-28T22:37:27.601Z,4.70
2018-04-28T22:39:57.627Z,4.17
2018-04-28T22:42:26.556Z,4.70
2018-04-28T22:44:55.461Z,4.37
2018-04-28T22:47:24.399Z,4.63
2018-04-28T22:49:54.385Z,4.97
2018-04-28T22:52:23.741Z,4.33
2018-04-28T22:54:53.089Z,4.40
2018-04-28T22:57:22.403Z,3.93
2018-04-28T22:59:52.853Z,4.80
2018-04-28T23:02:21.556Z,4.70
2018-04-28T23:04:50.853Z,5.00
2018-04-28T23:07:20.547Z,5.30
2018-04-28T23:09:50.255Z,5.53
2018-04-28T23:12:20.317Z,5.60
2018-04-28T23:14:51.053Z,4.93
2018-04-28T23:17:20.003Z,4.83
2018-04-28T23:19:50.429Z,5.30
2018-04-28T23:22:20.147Z,5.13
2018-04-28T23:24:50.665Z,5.33
2018-04-28T23:27:20.318Z,4.90
2018-04-28T23:29:49.253Z,4.47
2018-04-28T23:32:18.185Z,5.43
2018-04-28T23:34:47.121Z,5.17
2018-04-28T23:37:16.449Z,4.90
2018-04-28T23:39:46.683Z,5.87
2018-04-28T23:42:16.149Z,5.60
2018-04-28T23:44:45.164Z,5.17
2018-04-28T23:47:14.835Z,6.27
2018-04-28T23:49:44.731Z,5.37
2018-04-28T23:52:14.035Z,5.67
2018-04-28T23:54:42.991Z,5.40
2018-04-28T23:57:12.663Z,5.33
2018-04-28T23:59:41.575Z,6.20
